Bovina, Texas
Current Conditions -  °F | °C
As of 2:35 PM on Monday 26 Jan 2015 (Local Time) from KCVN Reporting Station
Clear Clear  
Wind Chill: 64°   Ceiling: Unl
Heat Index: 64°   Visibility: NA
Dew Point: 36°   Wind: 3mph
Humidity: 34%   Direction: 350°N
Pressure: 30.25"   Gusts: NA
Location:  34.51°N, 102.88°W
Report Text: KCVN 262035Z AUTO 35003KT CLR 18/02 A3025 RMK AO1
Loading
Personal Weather Stations






























Interactive Weather Map New forecast layout! Learn more

10-Day Weather Forecast

Advertisements
Track Severe Weather on mobile